createdAt,value
2022-10-20T00:02:19.143Z,96.20
2022-10-20T00:06:36.015Z,95.90
2022-10-20T00:10:57.982Z,95.80
2022-10-20T00:15:15.325Z,95.80
2022-10-20T00:19:29.194Z,95.70
2022-10-20T00:23:43.224Z,95.70
2022-10-20T00:27:58.440Z,95.70
2022-10-20T00:32:12.116Z,95.70
2022-10-20T00:36:26.135Z,95.70
2022-10-20T00:40:41.110Z,95.70
2022-10-20T00:44:59.617Z,95.80
2022-10-20T00:49:19.217Z,95.80
2022-10-20T00:53:33.201Z,95.80
2022-10-20T00:57:51.008Z,95.80
2022-10-20T01:02:07.894Z,95.90
2022-10-20T01:06:26.496Z,95.80
2022-10-20T01:10:48.381Z,95.80
2022-10-20T01:15:08.771Z,95.80
2022-10-20T01:19:58.381Z,95.80
2022-10-20T01:24:50.924Z,95.80
2022-10-20T01:29:12.639Z,95.80
2022-10-20T01:33:37.297Z,95.80
2022-10-20T01:37:55.561Z,95.80
2022-10-20T01:42:14.502Z,95.90
2022-10-20T01:46:30.091Z,95.90
2022-10-20T01:50:44.594Z,95.90
2022-10-20T01:54:58.324Z,95.80
2022-10-20T01:59:34.370Z,95.70
2022-10-20T02:03:55.253Z,95.80
2022-10-20T02:08:14.342Z,95.90
2022-10-20T02:12:30.568Z,96.10
2022-10-20T02:16:49.315Z,96.20
2022-10-20T02:21:07.224Z,96.20
2022-10-20T02:25:22.673Z,96.30
2022-10-20T02:29:43.587Z,96.20
2022-10-20T02:33:58.748Z,96.20
2022-10-20T02:38:14.045Z,96.50
2022-10-20T02:42:27.794Z,96.20
2022-10-20T02:46:41.485Z,96.30
2022-10-20T02:50:55.124Z,96.40
2022-10-20T02:55:10.692Z,96.40
2022-10-20T02:59:24.347Z,96.40
2022-10-20T03:03:38.051Z,96.40
2022-10-20T03:07:51.766Z,96.50
2022-10-20T03:12:07.313Z,96.50
2022-10-20T03:16:21.347Z,96.70
2022-10-20T03:20:35.555Z,96.70
2022-10-20T03:24:49.298Z,96.60
2022-10-20T03:29:04.441Z,96.70
2022-10-20T03:33:18.090Z,96.90
2022-10-20T03:37:31.803Z,96.90
2022-10-20T03:41:45.441Z,96.90
2022-10-20T03:46:08.295Z,96.90
2022-10-20T03:50:22.021Z,97.00
2022-10-20T03:54:36.447Z,97.00
2022-10-20T03:58:50.271Z,97.10
2022-10-20T04:03:05.512Z,97.20
2022-10-20T04:07:19.233Z,97.20
2022-10-20T04:11:33.305Z,97.60
2022-10-20T04:15:46.904Z,97.30
2022-10-20T04:20:02.103Z,97.30
2022-10-20T04:24:15.991Z,97.20
2022-10-20T04:28:30.799Z,97.30
2022-10-20T04:32:44.448Z,97.20
2022-10-20T04:37:00.051Z,97.20
2022-10-20T04:41:13.757Z,97.20
2022-10-20T04:45:27.479Z,97.10
2022-10-20T04:49:42.228Z,97.00
2022-10-20T04:53:57.348Z,97.10
2022-10-20T04:58:11.192Z,97.20
2022-10-20T05:02:25.177Z,97.30
2022-10-20T05:06:39.376Z,97.20
2022-10-20T05:10:54.410Z,97.00
2022-10-20T05:15:09.165Z,96.70
2022-10-20T05:19:23.022Z,96.60
2022-10-20T05:23:36.954Z,96.50
2022-10-20T05:27:51.933Z,96.40
2022-10-20T05:32:05.874Z,96.50
2022-10-20T05:36:21.842Z,96.50
2022-10-20T05:40:35.523Z,96.40
2022-10-20T05:44:50.995Z,96.30
2022-10-20T05:49:05.153Z,96.40
2022-10-20T05:53:19.769Z,96.40
2022-10-20T05:57:33.569Z,96.70
2022-10-20T06:01:49.111Z,97.10
2022-10-20T06:06:03.620Z,97.10
2022-10-20T06:10:17.470Z,97.50
2022-10-20T06:14:31.352Z,97.50
2022-10-20T06:18:46.407Z,97.60
2022-10-20T06:23:00.086Z,97.60
2022-10-20T06:27:13.855Z,97.60
2022-10-20T06:31:29.214Z,97.60
2022-10-20T06:35:44.601Z,97.50
2022-10-20T06:39:58.463Z,97.40
2022-10-20T06:44:12.836Z,97.50
2022-10-20T06:48:27.383Z,97.60
2022-10-20T06:52:42.463Z,98.10
2022-10-20T06:56:56.188Z,97.90
2022-10-20T07:01:14.649Z,98.00
2022-10-20T07:05:28.430Z,98.00
2022-10-20T07:09:43.488Z,98.40
2022-10-20T07:13:58.744Z,99.70
2022-10-20T07:18:12.377Z,99.90
2022-10-20T07:22:26.006Z,98.40
2022-10-20T07:26:41.961Z,95.60
2022-10-20T07:30:55.717Z,93.90
2022-10-20T07:35:09.707Z,91.30
2022-10-20T07:39:23.654Z,89.70
2022-10-20T07:43:39.145Z,86.90
2022-10-20T07:47:52.864Z,86.40
2022-10-20T07:52:07.158Z,82.80
2022-10-20T07:56:21.261Z,79.00
2022-10-20T08:00:36.344Z,78.00
2022-10-20T08:04:50.280Z,78.00
2022-10-20T08:09:05.069Z,76.10
2022-10-20T08:13:18.791Z,73.80
2022-10-20T08:17:34.966Z,72.20
2022-10-20T08:21:48.984Z,71.00
2022-10-20T08:26:02.800Z,68.40
2022-10-20T08:30:23.812Z,68.80
2022-10-20T08:34:39.756Z,66.90
2022-10-20T08:38:54.548Z,67.30
2022-10-20T08:43:11.760Z,68.30
2022-10-20T08:47:30.665Z,68.00
2022-10-20T08:51:47.679Z,67.50
2022-10-20T08:56:01.385Z,67.20
2022-10-20T09:00:17.336Z,66.60
2022-10-20T09:04:37.800Z,64.10
2022-10-20T09:08:53.572Z,62.30
2022-10-20T09:13:14.496Z,58.70
2022-10-20T09:17:28.216Z,55.80
2022-10-20T09:21:43.070Z,55.70
2022-10-20T09:25:58.163Z,55.00
2022-10-20T09:30:18.544Z,56.80
2022-10-20T09:34:34.707Z,56.70
2022-10-20T09:38:50.534Z,54.50
2022-10-20T09:43:12.398Z,54.00
2022-10-20T09:47:28.539Z,53.90
2022-10-20T09:51:49.135Z,53.20
2022-10-20T09:56:03.475Z,52.80
2022-10-20T10:00:36.774Z,52.20
2022-10-20T10:04:53.049Z,51.30
2022-10-20T10:09:28.027Z,51.80
2022-10-20T10:13:44.655Z,49.60
2022-10-20T10:18:01.425Z,50.10
2022-10-20T10:22:15.667Z,49.20
2022-10-20T10:26:46.988Z,50.60
2022-10-20T10:31:24.129Z,49.70
2022-10-20T10:35:42.143Z,49.70
2022-10-20T10:39:56.442Z,50.30
2022-10-20T10:44:18.957Z,49.10
2022-10-20T10:48:55.497Z,49.40
2022-10-20T10:53:28.005Z,50.80
2022-10-20T10:57:52.959Z,51.40
2022-10-20T11:02:33.831Z,51.10
2022-10-20T11:06:57.071Z,50.70
2022-10-20T11:11:26.317Z,51.60
2022-10-20T11:16:00.335Z,50.80
2022-10-20T11:20:25.627Z,50.80
2022-10-20T11:24:50.932Z,51.00
2022-10-20T11:29:11.394Z,51.00
2022-10-20T11:33:28.258Z,51.10
2022-10-20T11:37:49.469Z,52.20
2022-10-20T11:42:16.557Z,52.80
2022-10-20T11:46:38.188Z,53.80
2022-10-20T11:51:16.697Z,54.80
2022-10-20T11:55:45.365Z,55.10
2022-10-20T12:00:15.062Z,55.10
2022-10-20T12:04:41.417Z,55.20
2022-10-20T12:09:40.212Z,55.70
2022-10-20T12:14:02.159Z,56.30
2022-10-20T12:18:26.092Z,56.90
2022-10-20T12:22:43.478Z,57.90
2022-10-20T12:27:20.965Z,58.80
2022-10-20T12:32:24.181Z,59.30
2022-10-20T12:36:39.225Z,59.90
2022-10-20T12:41:00.057Z,60.60
2022-10-20T12:45:30.840Z,60.90
2022-10-20T12:49:54.588Z,61.40
2022-10-20T12:54:20.039Z,61.50
2022-10-20T12:58:36.581Z,61.50
2022-10-20T13:02:53.587Z,61.90
2022-10-20T13:07:10.578Z,62.10
2022-10-20T13:11:41.967Z,62.30
2022-10-20T13:15:57.998Z,61.80
2022-10-20T13:20:24.176Z,61.40
2022-10-20T13:24:42.697Z,61.40
2022-10-20T13:29:02.110Z,61.80
2022-10-20T13:33:34.438Z,61.50
2022-10-20T13:38:00.616Z,61.20
2022-10-20T13:42:27.553Z,61.10
2022-10-20T13:46:50.340Z,60.90
2022-10-20T13:51:10.697Z,60.00
2022-10-20T13:55:27.280Z,59.80
2022-10-20T13:59:56.479Z,58.20
2022-10-20T14:04:25.490Z,58.00
2022-10-20T14:08:45.557Z,58.50
2022-10-20T14:12:59.434Z,58.30
2022-10-20T14:17:20.744Z,57.30
2022-10-20T14:21:41.673Z,56.70
2022-10-20T14:25:58.001Z,56.40
2022-10-20T14:30:17.110Z,55.30
2022-10-20T14:34:34.378Z,55.60
2022-10-20T14:38:53.282Z,54.80
2022-10-20T14:43:14.999Z,54.80
2022-10-20T14:47:33.928Z,55.50
2022-10-20T14:51:56.197Z,57.60
2022-10-20T14:56:25.590Z,60.10
2022-10-20T15:00:41.096Z,61.20
2022-10-20T15:04:54.910Z,61.60
2022-10-20T15:09:19.176Z,61.60
2022-10-20T15:13:34.510Z,61.70
2022-10-20T15:17:51.332Z,62.00
2022-10-20T15:26:28.907Z,62.90
2022-10-20T15:30:42.773Z,63.30
2022-10-20T15:34:57.808Z,63.50
2022-10-20T15:39:12.224Z,63.90
2022-10-20T15:43:26.764Z,64.30
2022-10-20T15:47:41.074Z,64.70
2022-10-20T15:51:56.332Z,65.20
2022-10-20T15:56:10.173Z,65.80
2022-10-20T16:00:26.762Z,65.50
2022-10-20T16:04:40.530Z,65.40
2022-10-20T16:08:55.934Z,64.90
2022-10-20T16:13:10.756Z,64.60
2022-10-20T16:17:24.461Z,64.20
2022-10-20T16:21:38.171Z,64.20
2022-10-20T16:25:53.461Z,64.40
2022-10-20T16:30:08.725Z,64.60
2022-10-20T16:34:22.495Z,64.80
2022-10-20T16:38:39.923Z,65.20
2022-10-20T16:42:55.612Z,65.50
2022-10-20T16:47:35.974Z,65.90
2022-10-20T16:51:49.862Z,67.10
2022-10-20T16:56:15.209Z,66.80
2022-10-20T17:00:38.592Z,67.20
2022-10-20T17:04:52.961Z,67.60
2022-10-20T17:09:06.798Z,68.00
2022-10-20T17:13:20.558Z,68.30
2022-10-20T17:17:36.076Z,68.40
2022-10-20T17:21:52.466Z,69.60
2022-10-20T17:26:11.058Z,69.30
2022-10-20T17:30:24.951Z,69.60
2022-10-20T17:34:40.099Z,69.90
2022-10-20T17:38:56.537Z,70.20
2022-10-20T17:54:44.922Z,70.70
2022-10-20T17:59:00.335Z,70.60
2022-10-20T18:03:14.626Z,70.50
2022-10-20T18:07:28.611Z,70.40
2022-10-20T18:11:45.657Z,70.30
2022-10-20T18:15:59.376Z,70.20
2022-10-20T18:20:13.747Z,70.20
2022-10-20T18:24:30.660Z,70.10
2022-10-20T18:28:50.588Z,70.20
2022-10-20T18:33:05.708Z,70.20
2022-10-20T18:37:19.869Z,70.10
2022-10-20T18:41:38.138Z,70.20
2022-10-20T18:45:54.391Z,70.20
2022-10-20T18:50:09.767Z,70.20
2022-10-20T18:54:24.318Z,70.30
2022-10-20T18:58:43.021Z,70.30
2022-10-20T19:03:07.891Z,70.40
2022-10-20T19:07:22.134Z,70.70
2022-10-20T19:11:40.620Z,70.90
2022-10-20T19:15:56.558Z,71.10
2022-10-20T19:20:16.225Z,71.30
2022-10-20T19:24:30.410Z,72.00
2022-10-20T19:28:59.002Z,72.20
2022-10-20T19:33:12.978Z,72.40
2022-10-20T19:37:28.656Z,72.50
2022-10-20T19:41:42.542Z,72.50
2022-10-20T19:45:56.673Z,72.90
2022-10-20T19:50:10.646Z,74.70
2022-10-20T19:54:26.077Z,76.50
2022-10-20T19:58:44.136Z,79.30
2022-10-20T20:03:02.784Z,82.60
2022-10-20T20:11:34.752Z,89.40
2022-10-20T20:15:48.808Z,90.60
2022-10-20T20:20:03.070Z,91.10
2022-10-20T20:24:17.095Z,91.50
2022-10-20T20:28:32.710Z,91.80
2022-10-20T20:32:47.805Z,92.20
2022-10-20T20:37:04.548Z,92.30
2022-10-20T20:41:20.828Z,92.30
2022-10-20T20:45:38.114Z,92.30
2022-10-20T20:49:56.547Z,92.10
2022-10-20T20:54:11.479Z,91.60
2022-10-20T20:58:26.435Z,91.20
2022-10-20T21:02:45.084Z,90.80
2022-10-20T21:07:02.965Z,90.40
2022-10-20T21:11:18.900Z,90.10
2022-10-20T21:15:32.922Z,89.90
2022-10-20T21:19:48.007Z,89.10
2022-10-20T21:24:03.103Z,88.20
2022-10-20T21:28:16.817Z,87.60
2022-10-20T21:32:30.500Z,86.90
2022-10-20T21:36:45.680Z,86.00
2022-10-20T21:41:03.755Z,84.80
2022-10-20T21:45:19.150Z,84.10
2022-10-20T21:49:33.832Z,83.50
2022-10-20T21:53:49.256Z,83.00
2022-10-20T21:58:02.907Z,82.90
2022-10-20T22:02:16.546Z,82.10
2022-10-20T22:06:30.239Z,81.80
2022-10-20T22:10:45.288Z,81.70
2022-10-20T22:14:59.016Z,80.90
2022-10-20T22:19:14.625Z,80.40
2022-10-20T22:23:28.493Z,80.00
2022-10-20T22:27:43.571Z,79.80
2022-10-20T22:31:57.259Z,79.30
2022-10-20T22:36:10.961Z,79.30
2022-10-20T22:40:24.624Z,79.50
2022-10-20T22:44:39.694Z,79.40
2022-10-20T22:48:53.455Z,79.40
2022-10-20T22:53:07.233Z,79.40
2022-10-20T22:57:21.001Z,79.20
2022-10-20T23:01:36.354Z,79.10
2022-10-20T23:05:50.061Z,79.60
2022-10-20T23:10:04.525Z,80.00
2022-10-20T23:14:18.884Z,80.30
2022-10-20T23:18:34.611Z,81.20
2022-10-20T23:22:49.210Z,80.20
2022-10-20T23:27:03.060Z,79.90
2022-10-20T23:31:19.004Z,79.60
2022-10-20T23:35:35.799Z,79.00
2022-10-20T23:39:49.619Z,78.70
2022-10-20T23:44:03.536Z,78.50
2022-10-20T23:48:17.495Z,78.30
2022-10-20T23:52:32.592Z,77.80
2022-10-20T23:56:47.101Z,78.30
